Destinations Mohammed V International Airport

Mohammed V International Airport (GMMN / CMN)

Flights to Mohammed V International Airport

Flight number From ETE Dispatch
SPY-2458 EGPH Edinburgh Airport 03:40

Flights from Mohammed V International Airport

Flight number To ETE Dispatch
SPY-2459 EGPH Edinburgh Airport 03:40
About

Mohammed V International Airport facts

Mohammed V International Airport is located in Casablanca at an elevation of 199.9 meters or 656 feet.

Currently, Speedy Airlines serves 2 flights to and from Mohammed V International Airport.

Detailed airport info

Route map

Weather

Current weather

METAR

METAR

Metar data retrieved Sunday, 21 July 2024 at 20:25 UTC

GMMN 212000Z 01010KT CAVOK 22/17 Q1015 NOSIG
Wind Temperature
10 kt 22c